Flight Track Log - Related Links

Times and Time Zones

All times are in EDT time to prevent confusion due to time zone crossing. See the WJA2153 flight status page for this flight to view local times or setup timezone preferences in your user account.

Time Position Orientation Groundspeed Altitude Reporting Facility
EDT Latitude Longitude Course Direction KTS MPH feet Rate Location/Type
Sat 10:55:32 PM 30.7422 -110.6800 339° North 431 496 38,000  Level Albuquerque Center
Sat 10:56:32 PM 30.8650 -110.7339 339° North 429 494 38,000  Level Albuquerque Center
Sat 10:57:33 PM 30.9753 -110.7858 338° Northwest 428 493 38,000  Level Albuquerque Center
Sat 10:58:34 PM 31.0878 -110.8378 338° Northwest 432 497 38,000  Level Albuquerque Center
Sat 10:59:34 PM 31.2000 -110.8886 339° North 433 498 38,000  Level Albuquerque Center
Sat 11:00:35 PM 31.3092 -110.9392 338° Northwest 426 490 38,000  Level Albuquerque Center
Sat 11:01:36 PM 31.4236 -110.9786 344° North 424 488 38,000  Level Albuquerque Center
Sat 11:02:37 PM 31.5361 -111.0150 345° North 421 484 38,000  Level Albuquerque Center
Sat 11:03:37 PM 31.6483 -111.0561 343° North 414 476 38,000  Level Albuquerque Center
Sat 11:04:38 PM 31.7619 -111.0944 344° North 420 483 38,000  Level Albuquerque Center
Sat 11:05:39 PM 31.8742 -111.1333 344° North 420 483 38,000  Level Albuquerque Center
Sat 11:06:39 PM 31.9861 -111.1725 343° North 419 482 38,000  Level Albuquerque Center
Sat 11:07:40 PM 32.0972 -111.2122 343° North 418 481 38,000  Level Albuquerque Center
Sat 11:08:40 PM 32.2311 -111.2600 343° North 418 481 38,000  Level Albuquerque Center
Sat 11:09:41 PM 32.3439 -111.2972 344° North 419 482 38,000  Level Albuquerque Center
Sat 11:10:42 PM 32.4558 -111.3378 343° North 420 483 38,000  Level Albuquerque Center
Sat 11:11:42 PM 32.5675 -111.3767 344° North 418 481 38,000  Level Albuquerque Center
Sat 11:12:43 PM 32.6781 -111.4164 343° North 417 480 38,000  Level Albuquerque Center
Sat 11:13:44 PM 32.7881 -111.4558 343° North 414 476 38,000  Level Albuquerque Center
Sat 11:14:44 PM 32.8986 -111.4950 343° North 414 476 38,000  Level Albuquerque Center
Sat 11:15:45 PM 33.0103 -111.5342 344° North 416 479 38,000  Level Albuquerque Center
Sat 11:16:45 PM 33.1239 -111.5514 353° North 410 472 38,000  Level Albuquerque Center
Sat 11:17:46 PM 33.2403 -111.5522 360° North 416 479 38,000  Level Albuquerque Center
Sat 11:18:47 PM 33.3556 -111.5531 360° North 416 479 38,000  Level Albuquerque Center
Sat 11:19:47 PM 33.4700 -111.5569 358° North 413 475 38,000  Level Albuquerque Center
Sat 11:20:48 PM 33.5822 -111.5972 343° North 421 484 38,000  Level Albuquerque Center
Sat 11:21:49 PM 33.6922 -111.6406 342° North 418 481 38,000  Level Albuquerque Center
Sat 11:22:50 PM 33.8167 -111.6906 342° North 417 480 38,000  Level Albuquerque Center
Sat 11:23:50 PM 33.9272 -111.7347 342° North 418 481 38,000  Level Albuquerque Center
Sat 11:24:51 PM 34.0383 -111.7778 342° North 420 483 38,000  Level Albuquerque Center
Sat 11:25:52 PM 34.1486 -111.8222 342° North 419 482 38,000  Level Albuquerque Center
Sat 11:26:52 PM 34.2564 -111.8642 342° North 416 479 38,000  Level Albuquerque Center
Sat 11:27:53 PM 34.3656 -111.9078 342° North 415 478 38,000  Level Albuquerque Center
Sat 11:28:54 PM 34.4744 -111.9514 342° North 413 475 38,000  Level Albuquerque Center
Sat 11:29:55 PM 34.5817 -111.9947 342° North 409 471 38,000  Level Albuquerque Center
Sat 11:30:55 PM 34.6886 -112.0381 342° North 407 468 38,000  Level Albuquerque Center
Sat 11:31:56 PM 34.8058 -112.0858 341° North 406 467 38,000  Level Albuquerque Center
Sat 11:32:57 PM 34.9108 -112.1286 342° North 403 464 38,000  Level Albuquerque Center
Sat 11:33:57 PM 35.0172 -112.1700 342° North 403 464 38,000  Level Albuquerque Center
Sat 11:34:58 PM 35.1225 -112.2128 342° North 403 464 38,000  Level Albuquerque Center
Sat 11:35:59 PM 35.2278 -112.2550 342° North 402 463 38,000  Level Albuquerque Center
Sat 11:37:00 PM 35.3331 -112.2972 342° North 402 463 38,000  Level Albuquerque Center
Sat 11:38:00 PM 35.4378 -112.3414 341° North 402 463 38,000  Level Albuquerque Center
Sat 11:38:57 PM 35.5433 -112.3842 342° North 404 465 38,000  Level Los Angeles Center
Sat 11:39:58 PM 35.6478 -112.4267 342° North 400 460 38,000  Level Los Angeles Center
Sat 11:41:00 PM 35.7722 -112.4786 341° North 398 458 38,000  Level Los Angeles Center
Sat 11:42:01 PM 35.8550 -112.5117 342° North 395 455 38,000  Level Los Angeles Center
Sat 11:43:02 PM 35.9772 -112.5631 341° North 395 455 38,000  Level Los Angeles Center
Sat 11:44:03 PM 36.0803 -112.6061 341° North 393 452 38,000  Level Los Angeles Center
Sat 11:45:04 PM 36.1844 -112.6492 342° North 393 452 38,000  Level Los Angeles Center
Sat 11:46:05 PM 36.2883 -112.6925 341° North 394 453 38,000  Level Los Angeles Center
Sat 11:47:06 PM 36.3925 -112.7372 341° North 394 453 38,000  Level Los Angeles Center
Sat 11:48:08 PM 36.5183 -112.7886 342° North 396 456 38,000  Level Los Angeles Center
Sat 11:49:09 PM 36.6236 -112.8339 341° North 399 459 38,000  Level Los Angeles Center
Sat 11:50:10 PM 36.7292 -112.8786 341° North 402 463 38,000  Level Los Angeles Center
Sat 11:51:11 PM 36.8333 -112.9225 341° North 397 457 38,000  Level Los Angeles Center
Sat 11:52:12 PM 36.9381 -112.9681 341° North 398 458 38,000  Level Los Angeles Center
Sat 11:53:13 PM 37.0411 -113.0122 341° North 392 451 38,000  Level Los Angeles Center
Sat 11:54:14 PM 37.1456 -113.0569 341° North 393 452 38,000  Level Los Angeles Center
Sat 11:55:16 PM 37.2500 -113.1028 341° North 395 455 38,000  Level Los Angeles Center
Sat 11:56:29 PM 37.3550 -113.1483 341° North 395 455 38,000  Level Los Angeles Center
Sat 11:57:30 PM 37.4803 -113.2022 341° North 394 453 38,000  Level Los Angeles Center
Sat 11:58:31 PM 37.5850 -113.2497 340° North 395 455 38,000  Level Los Angeles Center
Sat 11:59:32 PM 37.6908 -113.2958 341° North 399 459 38,000  Level Los Angeles Center
Sun 12:00:33 AM 37.7961 -113.3425 341° North 398 458 38,000  Level Los Angeles Center
Sun 12:01:34 AM 37.9025 -113.3900 341° North 402 463 38,000  Level Los Angeles Center
Sun 12:02:31 AM 37.9975 -113.4642 328° Northwest 401 461 38,000  Level Salt Lake Center
Sun 12:03:31 AM 38.0947 -113.5394 329° Northwest 406 467 38,000  Level Salt Lake Center
Sun 12:04:32 AM 38.1917 -113.6133 329° Northwest 407 468 38,000  Level Salt Lake Center
Sun 12:05:32 AM 38.2875 -113.6886 328° Northwest 405 466 38,000  Level Salt Lake Center
Sun 12:06:33 AM 38.3819 -113.7631 328° Northwest 402 463 38,000  Level Salt Lake Center
Sun 12:07:33 AM 38.4775 -113.8375 329° Northwest 402 463 38,000  Level Salt Lake Center
Sun 12:08:34 AM 38.5731 -113.9128 328° Northwest 403 464 38,000  Level Salt Lake Center
Sun 12:09:35 AM 38.6681 -113.9892 328° Northwest 403 464 38,000  Level Salt Lake Center
Sun 12:10:35 AM 38.7633 -114.0647 328° Northwest 404 465 38,000  Level Salt Lake Center
Sun 12:11:36 AM 38.8569 -114.1414 327° Northwest 400 460 38,000  Level Salt Lake Center
Sun 12:12:36 AM 38.9686 -114.2319 328° Northwest 397 457 38,000  Level Salt Lake Center
Sun 12:13:37 AM 39.0633 -114.3069 328° Northwest 398 458 38,000  Level Salt Lake Center
Sun 12:14:38 AM 39.1575 -114.3836 328° Northwest 402 463 38,000  Level Salt Lake Center
Sun 12:15:38 AM 39.2481 -114.4625 326° Northwest 397 457 38,000  Level Salt Lake Center
Sun 12:16:39 AM 39.3378 -114.5356 328° Northwest 397 457 38,000  Level Salt Lake Center
Sun 12:17:39 AM 39.4275 -114.6083 328° Northwest 398 458 38,000  Level Salt Lake Center
Sun 12:18:40 AM 39.5350 -114.6906 329° Northwest 400 460 38,000  Level Salt Lake Center
Sun 12:19:40 AM 39.6236 -114.7647 327° Northwest 397 457 38,000  Level Salt Lake Center
Sun 12:20:41 AM 39.7117 -114.8383 327° Northwest 395 455 38,000  Level Salt Lake Center
Sun 12:21:41 AM 39.8144 -114.9222 328° Northwest 392 451 38,000  Level Salt Lake Center
Sun 12:22:42 AM 39.9011 -114.9956 327° Northwest 389 448 38,000  Level Salt Lake Center
Sun 12:23:42 AM 39.9892 -115.0681 328° Northwest 390 449 38,000  Level Salt Lake Center
Sun 12:24:43 AM 40.0914 -115.1547 327° Northwest 392 451 38,000  Level Salt Lake Center
Sun 12:25:44 AM 40.1772 -115.2300 326° Northwest 390 449 38,000  Level Salt Lake Center
Sun 12:26:44 AM 40.2664 -115.3028 328° Northwest 393 452 38,000  Level Salt Lake Center
Sun 12:27:45 AM 40.3703 -115.3897 327° Northwest 396 456 38,000  Level Salt Lake Center
Sun 12:28:45 AM 40.4583 -115.4639 327° Northwest 396 456 38,000  Level Salt Lake Center
Sun 12:29:46 AM 40.5439 -115.5392 326° Northwest 390 449 38,000  Level Salt Lake Center
Sun 12:30:46 AM 40.6311 -115.6139 327° Northwest 391 450 38,000  Level Salt Lake Center
Sun 12:31:47 AM 40.7356 -115.7025 327° Northwest 398 458 38,000  Level Salt Lake Center
Sun 12:32:47 AM 40.8244 -115.7778 327° Northwest 399 459 38,000  Level Salt Lake Center
Sun 12:33:48 AM 40.9142 -115.8542 327° Northwest 402 463 38,000  Level Salt Lake Center
Sun 12:34:48 AM 41.0169 -115.9431 327° Northwest 398 458 38,000  Level Salt Lake Center
Sun 12:35:49 AM 41.1036 -116.0186 327° Northwest 394 453 38,000  Level Salt Lake Center
Sun 12:36:49 AM 41.1906 -116.0944 327° Northwest 392 451 38,000  Level Salt Lake Center
Sun 12:37:50 AM 41.2928 -116.1850 326° Northwest 394 453 38,000  Level Salt Lake Center
Sun 12:38:50 AM 41.3806 -116.2614 327° Northwest 397 457 38,000  Level Salt Lake Center
Sun 12:39:51 AM 41.4681 -116.3403 326° Northwest 398 458 38,000  Level Salt Lake Center
Sun 12:40:51 AM 41.5706 -116.4311 326° Northwest 398 458 38,000  Level Salt Lake Center
Sun 12:41:52 AM 41.6600 -116.5108 326° Northwest 402 463 38,000  Level Salt Lake Center
Sun 12:42:52 AM 41.7483 -116.5908 326° Northwest 403 464 38,000  Level Salt Lake Center
Sun 12:43:53 AM 41.8539 -116.6825 327° Northwest 404 465 38,000  Level Salt Lake Center
Sun 12:44:53 AM 41.9431 -116.7636 326° Northwest 406 467 38,000  Level Salt Lake Center
Sun 12:45:54 AM 42.0331 -116.8425 327° Northwest 404 465 38,000  Level Salt Lake Center
Sun 12:46:54 AM 42.1372 -116.9369 326° Northwest 405 466 38,000  Level Salt Lake Center
Sun 12:47:55 AM 42.2264 -117.0186 326° Northwest 406 467 38,000  Level Salt Lake Center
Sun 12:48:55 AM 42.3186 -117.1022 326° Northwest 405 466 38,000  Level Salt Lake Center
Sun 12:49:56 AM 42.4081 -117.1836 326° Northwest 404 465 38,000  Level Salt Lake Center
Sun 12:50:56 AM 42.5133 -117.2803 326° Northwest 408 470 38,000  Level Salt Lake Center
Sun 12:51:56 AM 42.6036 -117.3631 326° Northwest 409 471 38,000  Level Salt Lake Center
Sun 12:52:57 AM 42.6925 -117.4469 325° Northwest 406 467 38,000  Level Salt Lake Center
Sun 12:53:57 AM 42.7983 -117.5439 326° Northwest 411 473 38,000  Level Salt Lake Center
Sun 12:54:58 AM 42.8881 -117.6289 325° Northwest 409 471 38,000  Level Salt Lake Center
Sun 12:55:58 AM 42.9783 -117.7125 326° Northwest 411 473 38,000  Level Salt Lake Center
Sun 12:56:58 AM 43.0686 -117.7972 326° Northwest 410 472 38,000  Level Salt Lake Center
Sun 12:57:59 AM 43.1731 -117.8961 325° Northwest 409 471 38,000  Level Salt Lake Center
Sun 12:58:59 AM 43.2628 -117.9797 326° Northwest 408 470 38,000  Level Salt Lake Center
Sun 01:00:41 AM 43.4261 -118.1350 325° Northwest 408 470 38,000  Level Salt Lake Center
Sun 01:01:41 AM 43.5153 -118.2206 325° Northwest 408 470 38,000  Level Salt Lake Center
Sun 01:02:42 AM 43.6003 -118.3022 325° Northwest 409 471 38,000  Level Salt Lake Center
Sun 01:03:42 AM 43.6944 -118.3911 326° Northwest 409 471 38,000  Level Salt Lake Center
Sun 01:04:42 AM 43.7894 -118.4828 325° Northwest 414 476 38,000  Level Salt Lake Center
Sun 01:05:43 AM 43.8842 -118.5750 325° Northwest 417 480 38,000  Level Salt Lake Center
Sun 01:06:43 AM 43.9786 -118.6664 325° Northwest 416 479 38,000  Level Salt Lake Center
Sun 01:07:43 AM 44.0742 -118.7592 325° Northwest 418 481 38,000  Level Salt Lake Center
Sun 01:08:30 AM 44.1511 -118.8353 325° Northwest 425 489 38,000  Level Seattle Center
Sun 01:09:30 AM 44.2453 -118.9286 325° Northwest 419 482 38,000  Level Seattle Center
Sun 01:10:31 AM 44.3419 -119.0219 325° Northwest 423 487 38,000  Level Seattle Center
Sun 01:11:31 AM 44.4378 -119.1172 325° Northwest 424 488 38,000  Level Seattle Center
Sun 01:12:32 AM 44.5325 -119.2122 324° Northwest 421 484 38,000  Level Seattle Center
Sun 01:13:32 AM 44.6278 -119.3072 325° Northwest 421 484 38,000  Level Seattle Center
Sun 01:14:32 AM 44.7219 -119.4025 324° Northwest 419 482 38,000  Level Seattle Center
Sun 01:15:33 AM 44.8342 -119.5147 325° Northwest 415 478 38,000  Level Seattle Center
Sun 01:16:33 AM 44.9275 -119.6086 325° Northwest 416 479 38,000  Level Seattle Center
Sun 01:17:33 AM 45.0200 -119.7042 324° Northwest 418 481 38,000  Level Seattle Center
Sun 01:18:34 AM 45.1131 -119.7981 325° Northwest 420 483 38,000  Level Seattle Center
Sun 01:19:34 AM 45.1981 -119.9050 318° Northwest 418 481 38,000  Level Seattle Center
Sun 01:20:34 AM 45.2781 -120.0208 314° West 415 478 38,000  Level Seattle Center
Sun 01:21:35 AM 45.3575 -120.1392 314° West 416 479 38,000  Level Seattle Center
Sun 01:22:35 AM 45.4394 -120.2578 315° West 420 483 38,000  Level Seattle Center
Sun 01:23:35 AM 45.5222 -120.3758 315° West 422 486 38,000  Level Seattle Center
Sun 01:24:35 AM 45.6044 -120.4953 315° West 422 486 38,000  Level Seattle Center
Sun 01:25:36 AM 45.6883 -120.6147 315° West 426 490 38,000  Level Seattle Center
Sun 01:26:36 AM 45.7700 -120.7356 314° West 425 489 38,000  Level Seattle Center
Sun 01:27:36 AM 45.8531 -120.8542 315° West 423 487 38,000  Level Seattle Center
Sun 01:28:37 AM 45.9386 -120.9731 316° Northwest 426 490 38,000  Level Seattle Center
Sun 01:29:37 AM 46.0242 -121.0894 317° Northwest 427 491 38,000  Level Seattle Center
Sun 01:30:37 AM 46.1111 -121.2067 317° Northwest 428 493 38,000  Level Seattle Center
Sun 01:31:37 AM 46.2314 -121.2647 342° North 446 513 38,000  Level Seattle Center
Sun 01:32:38 AM 46.3461 -121.3339 337° Northwest 449 517 38,000  Level Seattle Center
Sun 01:33:38 AM 46.4631 -121.4025 338° Northwest 453 521 38,000  Level Seattle Center
Sun 01:34:38 AM 46.5817 -121.4725 338° Northwest 459 528 38,000  Level Seattle Center
Sun 01:35:39 AM 46.7000 -121.5419 338° Northwest 460 529 38,000  Level Seattle Center
Sun 01:36:39 AM 46.8250 -121.6150 338° Northwest 460 529 38,000  Level Seattle Center
Sun 01:37:39 AM 46.9419 -121.6833 338° Northwest 458 527 38,000  Level Seattle Center
Sun 01:38:39 AM 47.0578 -121.7561 337° Northwest 458 527 38,000  Level Seattle Center
Sun 01:39:40 AM 47.1750 -121.8242 338° Northwest 458 527 38,000  Level Seattle Center
Sun 01:40:40 AM 47.2928 -121.8956 338° Northwest 463 533 38,000 -200 Level Seattle Center
Sun 01:41:40 AM 47.4336 -121.9792 338° Northwest 460 529 37,600 -1,537 Descending Seattle Center
Sun 01:42:41 AM 47.5486 -122.0497 338° Northwest 458 527 34,900 -2,727 Descending Seattle Center
Sun 01:43:41 AM 47.6653 -122.1200 338° Northwest 461 531 32,100 -2,550 Descending Seattle Center
Sun 01:44:41 AM 47.7808 -122.1911 338° Northwest 464 534 29,800 -2,331 Descending Seattle Center
Sun 01:45:42 AM 47.8933 -122.2614 337° Northwest 453 521 27,400 -2,281 Descending Seattle Center
Sun 01:46:42 AM 48.0119 -122.3036 347° North 447 514 25,200 -2,200 Descending Seattle Center
Sun 01:47:42 AM 48.1294 -122.3378 349° North 439 505 23,000 -2,150 Descending Seattle Center
Sun 01:48:42 AM 48.2428 -122.3722 349° North 425 489 20,900 -2,281 Descending Seattle Center
Sun 01:49:43 AM 48.3781 -122.4111 349° North 418 481 18,400 -2,231 Descending Seattle Center
Sun 01:50:43 AM 48.4858 -122.4422 349° North 403 464 16,400 -2,100 Descending Seattle Center
Sun 01:51:43 AM 48.5931 -122.4744 349° North 402 463 14,200 -2,150 Descending Seattle Center
Sun 01:52:43 AM 48.6983 -122.5064 349° North 394 453 12,100 -1,500 Descending Seattle Center
Sun 01:53:11 AM 48.7167 -122.5333 316° Northwest 380 437 12,000 -68 Descending Vancouver Center
Sun 01:54:11 AM 48.7833 -122.6667 307° West 340 391 12,000  Level Vancouver Center
Sun 01:55:11 AM 48.8500 -122.7667 315° West 340 391 12,000  Level Vancouver Center
Sun 01:56:11 AM 48.9000 -122.8667 307° West 340 391 12,000 -350 Level Vancouver Center
Sun 01:57:11 AM 48.9667 -122.9833 311° West 340 391 11,300 -800 Descending Vancouver Center
Sun 01:58:11 AM 49.0167 -123.0833 307° West 330 380 10,400 -1,100 Descending Vancouver Center
Sun 01:59:11 AM 49.0667 -123.1833 307° West 300 345 9,100 -1,400 Descending Vancouver Center
Sun 02:00:11 AM 49.0833 -123.2833 284° West 270 311 7,600 -1,500 Descending Vancouver Center
Sun 02:01:11 AM 49.1000 -123.3833 284° West 270 311 6,100 -1,700 Descending Vancouver Center
Sun 02:02:11 AM 49.1167 -123.5167 281° West 270 311 4,200 -1,650 Descending Vancouver Center
Sun 02:03:11 AM 49.1833 -123.5500 342° North 280 322 2,800 -850 Descending Vancouver Center
Sun 02:04:11 AM 49.2000 -123.4333 78° East 230 265 2,500 -300 Descending Vancouver Center

Login

Don't have an account? Register now (free) for customized features, flight alerts, and more!